Cedar Creek, TX (78612)

5:31 AM CST on February 13, 2016 (GMT -0600)
APRSWXNET | | Change Station
CLOSE
Current Station
Personal Weather Station
Location: Cedar Creek, TX
Elevation: 419 ft
Nearby Weather Stations

Elev 419 ft 30.08 °N, 97.50 °W | Updated 30 minutes ago

Clear
Clear
44 °F
Feels Like 44 °F
N
0
Wind Variable Wind from East
Gusts 0.0 mph

Today
High -- | Low -- °F
--% Chance of Precip.
Yesterday
High -- | Low -- °F
Precip. -- in
Pressure 30.30 in
Visibility 10.0 miles
Clouds Clear
Windchill 44 °F
Dew Point 40 °F
Humidity 85%
Rainfall in
Snow Depth Not available.
7:12 AM 6:16 PM
Waxing Crescent, 30% visible
METAR KAUS 131053Z 36005KT 10SM CLR 08/03 A3030 RMK AO2 SLP258 T00830033
Pressure 30.30 in
Visibility 10.0 miles
Clouds Clear
Windchill 44 °F
Dew Point 40 °F
Humidity 85%
Rainfall in
Snow Depth Not available.
7:12 AM 6:16 PM
Waxing Crescent, 30% visible
METAR KAUS 131053Z 36005KT 10SM CLR 08/03 A3030 RMK AO2 SLP258 T00830033

10-Day Weather Forecast

Almanac

Astronomy

Feb. 13, 2016 Rise Set
Actual Time
Civil Twilight
Nautical Twilight
Astronomical Twilight
Moon
Length of Visible Light
Length of Day
Tomorrow will be .
, % of the Moon is Illuminated

Today's Extremes

State Highs State Lows

Community

WunderPhotos

Upload Photos

1,892,541 photos uploaded!

WunderBlog® & News

Nearby

Air Quality

  Air Quality AQ Index Pollutant
Not available.

Snow Depth

Station Depth Elevation

Earthquake Activity

City Distance Mag. Time & Date
Minimum magnitude displayed is 2.5.

Coastal Water Temperatures

Place Temperature

Stations

Nearby Weather Stations

Station Location Temp. Windchill Dew Point Humidity Wind Precip. Elev Updated Type
                   

Watches & Warnings

There are currently no watches in effect.